Falcon, Missouri
Current Conditions -  °F | °C
As of 11:58 AM on Monday 26 Jan 2015 (Local Time) from KTBN Reporting Station
Clear Clear  
Wind Chill: 39°   Ceiling: Unl
Heat Index: 44°   Visibility: 10mi
Dew Point: 33°   Wind: 10mph
Humidity: 64%   Direction: 220°SW
Pressure: 29.95"   Gusts: NA
Location:  37.61°N, 92.38°W
Report Text: KTBN 261758Z AUTO 22009KT 10SM CLR 07/01 A2995 RMK AO2 PRESFR SLP151 T00680005 10068 21008 58030
Loading
Personal Weather Stations






























Interactive Weather Map New forecast layout! Learn more

10-Day Weather Forecast

Advertisements
Track Severe Weather on mobile